createdAt,value
2018-04-11T00:01:11.691Z,99020.82
2018-04-11T00:03:39.259Z,99021.80
2018-04-11T00:06:06.886Z,99021.20
2018-04-11T00:08:34.438Z,99020.57
2018-04-11T00:11:02.003Z,99018.66
2018-04-11T00:13:29.793Z,99017.31
2018-04-11T00:15:57.366Z,99017.34
2018-04-11T00:18:24.920Z,99026.51
2018-04-11T00:20:52.535Z,99034.33
2018-04-11T00:23:20.095Z,99025.38
2018-04-11T00:25:47.706Z,99010.92
2018-04-11T00:28:15.427Z,98998.00
2018-04-11T00:30:43.389Z,98986.70
2018-04-11T00:33:10.978Z,98982.90
2018-04-11T00:35:38.586Z,98965.48
2018-04-11T00:38:06.480Z,98960.67
2018-04-11T00:40:34.038Z,98969.59
2018-04-11T00:43:01.619Z,98971.70
2018-04-11T00:45:29.487Z,98971.30
2018-04-11T00:47:57.042Z,98970.08
2018-04-11T00:50:25.139Z,98965.59
2018-04-11T00:53:04.736Z,98962.09
2018-04-11T00:55:32.845Z,98966.06
2018-04-11T00:58:01.056Z,98970.19
2018-04-11T01:00:28.974Z,98966.42
2018-04-11T01:02:56.545Z,98966.78
2018-04-11T01:05:24.476Z,98970.45
2018-04-11T01:07:52.238Z,98967.53
2018-04-11T01:10:19.794Z,98970.73
2018-04-11T01:12:47.354Z,98971.44
2018-04-11T01:15:14.960Z,98965.19
2018-04-11T01:17:42.557Z,98953.51
2018-04-11T01:20:10.966Z,98960.20
2018-04-11T01:22:39.126Z,98964.90
2018-04-11T01:25:07.503Z,98962.88
2018-04-11T01:27:35.059Z,98965.23
2018-04-11T01:30:03.310Z,98976.91
2018-04-11T01:32:30.911Z,98982.13
2018-04-11T01:34:58.483Z,98978.17
2018-04-11T01:37:26.876Z,98991.06
2018-04-11T01:39:54.430Z,98990.47
2018-04-11T01:42:22.027Z,98987.05
2018-04-11T01:44:50.103Z,98994.41
2018-04-11T01:47:18.043Z,98990.66
2018-04-11T01:49:45.599Z,98996.30
2018-04-11T01:52:13.300Z,98994.95
2018-04-11T01:54:41.542Z,99001.43
2018-04-11T01:57:09.633Z,99001.84
2018-04-11T01:59:37.204Z,98999.14
2018-04-11T02:02:04.940Z,98997.58
2018-04-11T02:04:33.008Z,98991.65
2018-04-11T02:07:00.724Z,99003.45
2018-04-11T02:09:28.606Z,98999.06
2018-04-11T02:11:56.166Z,99001.16
2018-04-11T02:14:23.874Z,98997.75
2018-04-11T02:16:52.080Z,98999.59
2018-04-11T02:19:19.659Z,98999.30
2018-04-11T02:21:47.215Z,98993.25
2018-04-11T02:24:15.063Z,98986.39
2018-04-11T02:26:42.626Z,98979.11
2018-04-11T02:29:10.210Z,98973.32
2018-04-11T02:31:37.808Z,98976.72
2018-04-11T02:34:05.970Z,98985.17
2018-04-11T02:36:33.981Z,98987.87
2018-04-11T02:39:01.599Z,98987.98
2018-04-11T02:41:29.159Z,98993.40
2018-04-11T02:43:56.755Z,98990.58
2018-04-11T02:46:24.310Z,98995.43
2018-04-11T02:48:52.773Z,98995.69
2018-04-11T02:51:20.327Z,98993.78
2018-04-11T02:53:47.939Z,98993.55
2018-04-11T02:56:16.061Z,98990.38
2018-04-11T02:58:43.621Z,98993.53
2018-04-11T03:01:11.279Z,98993.98
2018-04-11T03:03:39.163Z,98997.88
2018-04-11T03:06:06.770Z,98990.77
2018-04-11T03:08:34.915Z,98995.95
2018-04-11T03:11:02.482Z,99002.55
2018-04-11T03:13:30.055Z,98999.94
2018-04-11T03:15:57.963Z,99005.23
2018-04-11T03:18:25.526Z,98997.20
2018-04-11T03:20:53.394Z,99005.20
2018-04-11T03:23:20.947Z,99000.59
2018-04-11T03:25:48.863Z,99003.76
2018-04-11T03:28:16.714Z,99002.00
2018-04-11T03:30:44.323Z,99001.76
2018-04-11T03:33:11.939Z,98998.95
2018-04-11T03:35:39.546Z,99001.18
2018-04-11T03:38:07.174Z,99009.03
2018-04-11T03:40:34.744Z,99010.89
2018-04-11T03:43:03.155Z,99017.05
2018-04-11T03:45:30.775Z,99015.60
2018-04-11T03:47:58.768Z,99014.98
2018-04-11T03:50:26.657Z,99012.42
2018-04-11T03:52:54.278Z,99012.97
2018-04-11T03:55:21.831Z,99016.05
2018-04-11T03:57:49.803Z,99026.81
2018-04-11T04:00:17.411Z,99029.60
2018-04-11T04:02:45.485Z,99024.64
2018-04-11T04:05:13.685Z,99034.48
2018-04-11T04:07:41.236Z,99043.47
2018-04-11T04:10:09.282Z,99031.62
2018-04-11T04:12:36.858Z,99031.22
2018-04-11T04:18:26.143Z,99016.23
2018-04-11T04:20:53.762Z,99019.82
2018-04-11T04:23:21.310Z,99019.14
2018-04-11T04:25:48.881Z,99012.95
2018-04-11T04:28:16.811Z,99019.19
2018-04-11T04:30:44.578Z,99019.45
2018-04-11T04:33:12.149Z,99010.05
2018-04-11T04:35:40.248Z,99012.92
2018-04-11T04:38:08.339Z,98997.55
2018-04-11T04:40:36.006Z,98995.29
2018-04-11T04:43:03.593Z,99008.89
2018-04-11T04:45:31.183Z,99010.94
2018-04-11T04:47:58.725Z,99012.38
2018-04-11T04:50:26.322Z,99024.78
2018-04-11T04:52:54.164Z,99032.37
2018-04-11T04:55:21.720Z,99042.83
2018-04-11T04:57:49.290Z,99043.20
2018-04-11T05:00:16.974Z,99040.59
2018-04-11T05:02:45.001Z,99040.34
2018-04-11T05:05:13.277Z,99044.95
2018-04-11T05:07:40.876Z,99044.31
2018-04-11T05:10:08.808Z,99052.75
2018-04-11T05:12:36.415Z,99050.47
2018-04-11T05:15:03.992Z,99053.24
2018-04-11T05:17:31.680Z,99055.55
2018-04-11T05:19:59.708Z,99049.88
2018-04-11T05:22:27.258Z,99042.72
2018-04-11T05:24:54.926Z,99045.14
2018-04-11T05:27:22.805Z,99047.23
2018-04-11T05:29:50.622Z,99048.26
2018-04-11T05:32:18.270Z,99051.01
2018-04-11T05:34:46.383Z,99073.43
2018-04-11T05:37:14.740Z,99087.55
2018-04-11T05:39:42.350Z,99094.81
2018-04-11T05:42:09.961Z,99093.66
2018-04-11T05:44:39.678Z,99093.11
2018-04-11T05:47:07.225Z,99085.31
2018-04-11T05:49:35.044Z,99083.52
2018-04-11T05:52:03.263Z,99082.83
2018-04-11T05:54:30.842Z,99079.30
2018-04-11T05:56:58.666Z,99077.62
2018-04-11T05:59:27.307Z,99086.73
2018-04-11T06:01:54.937Z,99087.02
2018-04-11T06:04:22.680Z,99080.88
2018-04-11T06:06:50.459Z,99071.13
2018-04-11T06:09:18.225Z,99069.81
2018-04-11T06:11:45.872Z,99073.33
2018-04-11T06:14:13.801Z,99071.02
2018-04-11T06:16:41.818Z,99068.23
2018-04-11T06:19:09.374Z,99062.66
2018-04-11T06:21:37.032Z,99064.50
2018-04-11T06:24:04.592Z,99064.81
2018-04-11T06:26:32.138Z,99066.41
2018-04-11T06:28:59.848Z,99073.59
2018-04-11T06:31:27.394Z,99072.34
2018-04-11T06:33:55.033Z,99076.73
2018-04-11T06:36:22.590Z,99083.64
2018-04-11T06:38:50.660Z,99090.05
2018-04-11T06:41:18.258Z,99094.09
2018-04-11T06:43:46.116Z,99098.92
2018-04-11T06:46:14.272Z,99105.70
2018-04-11T06:48:42.334Z,99105.56
2018-04-11T06:51:09.950Z,99101.92
2018-04-11T06:53:37.522Z,99096.74
2018-04-11T06:56:05.595Z,99104.69
2018-04-11T06:58:33.418Z,99106.58
2018-04-11T07:01:01.066Z,99115.00
2018-04-11T07:03:28.619Z,99120.21
2018-04-11T07:05:56.239Z,99111.56
2018-04-11T07:08:23.894Z,99116.80
2018-04-11T07:10:51.591Z,99117.83
2018-04-11T07:13:19.135Z,99101.21
2018-04-11T07:15:46.941Z,99089.80
2018-04-11T07:18:14.763Z,99087.75
2018-04-11T07:20:42.770Z,99094.81
2018-04-11T07:23:10.352Z,99103.71
2018-04-11T07:25:38.265Z,99114.52
2018-04-11T07:28:06.064Z,99119.25
2018-04-11T07:30:34.017Z,99114.33
2018-04-11T07:33:01.638Z,99112.00
2018-04-11T07:35:29.361Z,99106.45
2018-04-11T07:37:57.065Z,99105.87
2018-04-11T07:40:24.950Z,99109.66
2018-04-11T07:42:52.512Z,99118.42
2018-04-11T07:45:20.066Z,99125.23
2018-04-11T07:47:47.871Z,99126.84
2018-04-11T07:50:15.723Z,99123.11
2018-04-11T07:52:43.328Z,99125.91
2018-04-11T07:55:10.924Z,99121.88
2018-04-11T07:57:39.548Z,99126.15
2018-04-11T08:00:07.532Z,99119.88
2018-04-11T08:02:35.647Z,99123.22
2018-04-11T08:05:03.341Z,99127.92
2018-04-11T08:07:31.094Z,99125.37
2018-04-11T08:09:58.701Z,99119.08
2018-04-11T08:12:26.337Z,99103.61
2018-04-11T08:14:53.907Z,99092.59
2018-04-11T08:17:21.746Z,99088.78
2018-04-11T08:19:49.447Z,99103.17
2018-04-11T08:22:17.010Z,99114.65
2018-04-11T08:24:44.744Z,99122.83
2018-04-11T08:27:12.312Z,99128.47
2018-04-11T08:29:41.101Z,99143.61
2018-04-11T08:32:09.038Z,99139.73
2018-04-11T08:34:36.653Z,99125.94
2018-04-11T08:37:04.286Z,99126.29
2018-04-11T08:39:31.839Z,99126.23
2018-04-11T08:41:59.802Z,99131.30
2018-04-11T08:44:27.694Z,99123.05
2018-04-11T08:46:55.445Z,99128.14
2018-04-11T08:49:23.233Z,99118.89
2018-04-11T08:51:50.974Z,99116.00
2018-04-11T08:54:18.806Z,99112.52
2018-04-11T08:56:47.472Z,99100.55
2018-04-11T08:59:15.955Z,99102.33
2018-04-11T09:01:43.544Z,99100.91
2018-04-11T09:04:11.097Z,99093.05
2018-04-11T09:06:39.363Z,99085.78
2018-04-11T09:09:06.926Z,99091.16
2018-04-11T09:11:34.487Z,99099.42
2018-04-11T09:14:02.089Z,99089.53
2018-04-11T09:16:30.025Z,99093.80
2018-04-11T09:18:57.668Z,99099.52
2018-04-11T09:21:25.684Z,99092.09
2018-04-11T09:23:53.227Z,99086.05
2018-04-11T09:26:21.222Z,99077.85
2018-04-11T09:28:48.860Z,99082.98
2018-04-11T09:31:16.406Z,99072.03
2018-04-11T09:33:43.958Z,99069.95
2018-04-11T09:36:11.645Z,99072.44
2018-04-11T09:38:39.236Z,99081.44
2018-04-11T09:41:06.958Z,99078.77
2018-04-11T09:43:35.563Z,99068.59
2018-04-11T09:46:03.122Z,99069.95
2018-04-11T09:48:30.730Z,99061.57
2018-04-11T09:50:58.855Z,99061.45
2018-04-11T09:53:26.788Z,99065.41
2018-04-11T09:55:54.356Z,99067.89
2018-04-11T09:58:22.109Z,99062.85
2018-04-11T10:00:53.537Z,99068.09
2018-04-11T10:03:23.236Z,99065.50
2018-04-11T10:05:50.872Z,99068.94
2018-04-11T10:08:18.430Z,99059.80
2018-04-11T10:10:46.204Z,99063.22
2018-04-11T10:13:13.822Z,99059.83
2018-04-11T10:15:41.374Z,99063.45
2018-04-11T10:18:09.496Z,99054.41
2018-04-11T10:20:37.256Z,99053.33
2018-04-11T10:23:04.886Z,99046.27
2018-04-11T10:25:32.439Z,99040.99
2018-04-11T10:28:00.038Z,99047.77
2018-04-11T10:30:27.751Z,99045.58
2018-04-11T10:32:55.365Z,99040.13
2018-04-11T10:35:23.184Z,99037.47
2018-04-11T10:37:52.218Z,99041.52
2018-04-11T10:40:19.770Z,99038.20
2018-04-11T10:42:47.633Z,99036.13
2018-04-11T10:45:15.819Z,99018.52
2018-04-11T10:47:43.373Z,99016.09
2018-04-11T10:50:10.974Z,99015.41
2018-04-11T10:52:38.945Z,99017.61
2018-04-11T10:55:06.602Z,99009.87
2018-04-11T10:57:34.242Z,99016.52
2018-04-11T11:00:02.825Z,99015.67
2018-04-11T11:02:30.509Z,99012.53
2018-04-11T11:04:58.061Z,99017.16
2018-04-11T11:07:25.630Z,99017.48
2018-04-11T11:09:53.277Z,99011.73
2018-04-11T11:12:20.942Z,99017.66
2018-04-11T11:14:48.494Z,99012.83
2018-04-11T11:17:16.120Z,99011.98
2018-04-11T11:19:55.923Z,99008.67
2018-04-11T11:22:23.637Z,99000.70
2018-04-11T11:24:51.190Z,99002.80
2018-04-11T11:27:19.025Z,99005.80
2018-04-11T11:29:47.451Z,98989.33
2018-04-11T11:32:15.070Z,98978.16
2018-04-11T11:34:42.652Z,98974.36
2018-04-11T11:37:10.238Z,98974.86
2018-04-11T11:39:37.941Z,98962.20
2018-04-11T11:42:05.516Z,98950.62
2018-04-11T11:44:33.193Z,98949.29
2018-04-11T11:47:00.807Z,98945.14
2018-04-11T11:49:28.407Z,98944.84
2018-04-11T11:51:55.963Z,98940.42
2018-04-11T11:54:23.621Z,98945.90
2018-04-11T11:56:51.230Z,98946.23
2018-04-11T11:59:18.790Z,98936.86
2018-04-11T12:01:46.414Z,98938.75
2018-04-11T12:04:14.037Z,98940.20
2018-04-11T12:06:41.586Z,98935.37
2018-04-11T12:09:09.288Z,98920.81
2018-04-11T12:11:36.894Z,98923.55
2018-04-11T12:14:04.466Z,98925.03
2018-04-11T12:16:32.076Z,98922.48
2018-04-11T12:18:59.687Z,98922.98
2018-04-11T12:21:27.334Z,98920.31
2018-04-11T12:23:54.953Z,98916.40
2018-04-11T12:26:22.587Z,98918.56
2018-04-11T12:28:50.219Z,98914.28
2018-04-11T12:31:17.982Z,98903.89
2018-04-11T12:33:45.543Z,98900.29
2018-04-11T12:36:13.206Z,98899.45
2018-04-11T12:38:41.018Z,98894.63
2018-04-11T12:41:08.575Z,98899.69
2018-04-11T12:43:36.172Z,98894.43
2018-04-11T12:46:04.618Z,98893.52
2018-04-11T12:48:32.229Z,98889.19
2018-04-11T12:50:59.843Z,98891.05
2018-04-11T12:53:27.508Z,98893.56
2018-04-11T12:55:55.114Z,98894.89
2018-04-11T12:58:22.702Z,98886.45
2018-04-11T13:00:50.319Z,98876.11
2018-04-11T13:03:17.974Z,98874.98
2018-04-11T13:05:45.627Z,98861.13
2018-04-11T13:08:13.212Z,98862.05
2018-04-11T13:10:40.818Z,98861.28
2018-04-11T13:13:08.440Z,98873.53
2018-04-11T13:15:36.018Z,98872.16
2018-04-11T13:18:03.635Z,98871.02
2018-04-11T13:20:31.506Z,98866.30
2018-04-11T13:22:59.127Z,98860.34
2018-04-11T13:25:26.756Z,98857.75
2018-04-11T13:27:54.380Z,98852.77
2018-04-11T13:30:21.945Z,98849.55
2018-04-11T13:32:49.958Z,98843.08
2018-04-11T13:35:17.714Z,98850.91
2018-04-11T13:37:46.239Z,98852.36
2018-04-11T13:40:14.174Z,98840.61
2018-04-11T13:42:41.744Z,98836.39
2018-04-11T13:45:09.338Z,98835.17
2018-04-11T13:47:36.983Z,98835.25
2018-04-11T13:50:04.597Z,98834.56
2018-04-11T13:52:33.245Z,98829.78
2018-04-11T13:55:00.787Z,98831.19
2018-04-11T13:57:28.618Z,98823.36
2018-04-11T13:59:56.162Z,98825.53
2018-04-11T14:02:23.758Z,98830.24
2018-04-11T14:04:51.667Z,98829.10
2018-04-11T14:07:20.491Z,98827.55
2018-04-11T14:09:48.102Z,98824.20
2018-04-11T14:12:16.450Z,98826.63
2018-04-11T14:14:44.581Z,98830.70
2018-04-11T14:17:12.459Z,98830.32
2018-04-11T14:19:40.004Z,98830.73
2018-04-11T14:22:08.365Z,98827.66
2018-04-11T14:24:35.930Z,98836.97
2018-04-11T14:27:04.770Z,98842.86
2018-04-11T14:29:32.338Z,98846.81
2018-04-11T14:31:59.885Z,98850.16
2018-04-11T14:34:27.731Z,98851.56
2018-04-11T14:36:55.675Z,98841.83
2018-04-11T14:39:23.270Z,98851.98
2018-04-11T14:41:50.865Z,98843.09
2018-04-11T14:44:18.430Z,98839.94
2018-04-11T14:46:46.058Z,98831.53
2018-04-11T14:49:14.495Z,98837.27
2018-04-11T14:51:42.066Z,98827.13
2018-04-11T14:54:09.711Z,98823.06
2018-04-11T14:56:37.298Z,98825.23
2018-04-11T14:59:05.118Z,98834.13
2018-04-11T15:01:32.936Z,98842.52
2018-04-11T15:04:00.526Z,98834.91
2018-04-11T15:06:28.066Z,98837.50
2018-04-11T15:08:55.607Z,98843.24
2018-04-11T15:11:23.297Z,98847.23
2018-04-11T15:13:50.846Z,98841.84
2018-04-11T15:16:19.630Z,98837.36
2018-04-11T15:18:47.389Z,98838.56
2018-04-11T15:21:15.537Z,98834.16
2018-04-11T15:23:44.597Z,98831.00
2018-04-11T15:26:12.186Z,98827.50
2018-04-11T15:28:40.135Z,98828.84
2018-04-11T15:31:07.740Z,98832.52
2018-04-11T15:33:35.305Z,98831.34
2018-04-11T15:36:03.857Z,98825.72
2018-04-11T15:38:32.209Z,98823.21
2018-04-11T15:41:00.041Z,98823.75
2018-04-11T15:43:27.674Z,98837.20
2018-04-11T15:45:55.244Z,98827.17
2018-04-11T15:48:23.188Z,98826.41
2018-04-11T15:50:50.789Z,98831.31
2018-04-11T15:53:18.342Z,98832.34
2018-04-11T15:55:46.119Z,98826.74
2018-04-11T15:58:13.871Z,98826.94
2018-04-11T16:00:42.563Z,98833.73
2018-04-11T16:03:10.934Z,98829.44
2018-04-11T16:05:38.546Z,98830.92
2018-04-11T16:08:06.151Z,98829.21
2018-04-11T16:10:33.822Z,98828.52
2018-04-11T16:13:02.498Z,98828.14
2018-04-11T16:15:30.625Z,98832.44
2018-04-11T16:17:58.767Z,98832.12
2018-04-11T16:20:27.132Z,98830.57
2018-04-11T16:22:54.823Z,98839.19
2018-04-11T16:25:22.728Z,98830.34
2018-04-11T16:27:50.642Z,98832.57
2018-04-11T16:30:18.188Z,98825.84
2018-04-11T16:32:48.251Z,98824.86
2018-04-11T16:35:16.182Z,98830.36
2018-04-11T16:37:44.169Z,98830.95
2018-04-11T16:40:12.316Z,98830.69
2018-04-11T16:42:39.905Z,98830.22
2018-04-11T16:45:07.852Z,98833.91
2018-04-11T16:47:35.474Z,98840.45
2018-04-11T16:50:03.437Z,98834.23
2018-04-11T16:52:31.330Z,98842.83
2018-04-11T16:54:59.394Z,98841.10
2018-04-11T16:57:27.667Z,98843.56
2018-04-11T16:59:55.217Z,98849.34
2018-04-11T17:02:22.767Z,98852.90
2018-04-11T17:04:51.351Z,98855.19
2018-04-11T17:07:19.287Z,98860.69
2018-04-11T17:09:48.021Z,98864.80
2018-04-11T17:12:15.997Z,98869.73
2018-04-11T17:14:43.609Z,98867.89
2018-04-11T17:17:11.175Z,98872.89
2018-04-11T17:19:38.750Z,98877.67
2018-04-11T17:22:18.193Z,98878.66
2018-04-11T17:24:57.562Z,98888.36
2018-04-11T17:27:37.037Z,98888.02
2018-04-11T17:30:16.742Z,98889.20
2018-04-11T17:32:44.541Z,98893.57
2018-04-11T17:35:12.091Z,98898.39
2018-04-11T17:37:39.691Z,98898.70
2018-04-11T17:40:07.274Z,98903.84
2018-04-11T17:42:35.280Z,98909.11
2018-04-11T17:45:04.163Z,98912.81
2018-04-11T17:47:33.126Z,98922.41
2018-04-11T17:50:01.334Z,98925.41
2018-04-11T17:52:29.405Z,98929.38
2018-04-11T17:54:57.194Z,98930.16
2018-04-11T17:57:24.788Z,98940.25
2018-04-11T17:59:54.034Z,98947.91
2018-04-11T18:02:22.797Z,98948.95
2018-04-11T18:04:50.341Z,98955.25
2018-04-11T18:07:18.161Z,98960.38
2018-04-11T18:09:45.873Z,98960.58
2018-04-11T18:12:13.611Z,98969.88
2018-04-11T18:14:41.718Z,98971.63
2018-04-11T18:17:09.311Z,98969.44
2018-04-11T18:19:36.989Z,98974.86
2018-04-11T18:22:05.343Z,98975.97
2018-04-11T18:24:32.918Z,98979.47
2018-04-11T18:27:01.080Z,98984.26
2018-04-11T18:29:28.630Z,98985.45
2018-04-11T18:31:57.062Z,98984.91
2018-04-11T18:34:25.078Z,98989.20
2018-04-11T18:36:53.244Z,98989.52
2018-04-11T18:39:20.839Z,98990.75
2018-04-11T18:41:49.019Z,98992.24
2018-04-11T18:44:16.637Z,98991.92
2018-04-11T18:46:44.582Z,98999.73
2018-04-11T18:49:12.138Z,98993.58
2018-04-11T18:51:39.694Z,98993.23
2018-04-11T18:54:07.314Z,98989.47
2018-04-11T18:56:34.862Z,98990.27
2018-04-11T18:59:02.475Z,98999.31
2018-04-11T19:01:30.302Z,98998.73
2018-04-11T19:03:59.654Z,98993.87
2018-04-11T19:06:28.037Z,98995.11
2018-04-11T19:08:56.125Z,99005.84
2018-04-11T19:11:23.671Z,99006.97
2018-04-11T19:13:51.619Z,99010.85
2018-04-11T19:16:19.162Z,99013.58
2018-04-11T19:18:47.517Z,99014.06
2018-04-11T19:21:15.505Z,99014.61
2018-04-11T19:23:43.099Z,99008.48
2018-04-11T19:26:11.186Z,99010.42
2018-04-11T19:28:38.986Z,99011.27
2018-04-11T19:31:06.586Z,99016.71
2018-04-11T19:33:34.183Z,99023.14
2018-04-11T19:36:01.802Z,99022.01
2018-04-11T19:38:30.034Z,99021.67
2018-04-11T19:40:57.982Z,99023.06
2018-04-11T19:43:25.922Z,99022.69
2018-04-11T19:45:53.514Z,99020.98
2018-04-11T19:48:21.914Z,99018.92
2018-04-11T19:50:49.775Z,99022.09
2018-04-11T19:53:17.378Z,99020.16
2018-04-11T19:55:44.953Z,99015.08
2018-04-11T19:58:13.488Z,99010.39
2018-04-11T20:00:41.034Z,99015.42
2018-04-11T20:03:09.396Z,99009.41
2018-04-11T20:05:37.463Z,99014.89
2018-04-11T20:08:05.381Z,99013.75
2018-04-11T20:10:32.930Z,99015.92
2018-04-11T20:13:00.636Z,99021.95
2018-04-11T20:15:28.262Z,99020.43
2018-04-11T20:17:56.035Z,99021.69
2018-04-11T20:20:23.695Z,99013.28
2018-04-11T20:22:51.245Z,99009.48
2018-04-11T20:25:19.402Z,99015.88
2018-04-11T20:27:47.260Z,99017.59
2018-04-11T20:30:14.834Z,99014.76
2018-04-11T20:32:42.454Z,99018.77
2018-04-11T20:35:11.994Z,99015.55
2018-04-11T20:37:40.869Z,99017.36
2018-04-11T20:40:08.414Z,99019.98
2018-04-11T20:42:37.437Z,99030.59
2018-04-11T20:45:05.053Z,99025.22
2018-04-11T20:47:32.956Z,99030.09
2018-04-11T20:50:01.344Z,99021.95
2018-04-11T20:52:29.609Z,99025.05
2018-04-11T20:54:57.747Z,99028.36
2018-04-11T20:57:26.226Z,99028.12
2018-04-11T20:59:55.035Z,99029.97
2018-04-11T21:02:22.947Z,99029.62
2018-04-11T21:04:50.820Z,99028.78
2018-04-11T21:07:18.362Z,99034.84
2018-04-11T21:09:46.598Z,99033.21
2018-04-11T21:12:14.137Z,99034.90
2018-04-11T21:14:41.724Z,99037.06
2018-04-11T21:17:09.793Z,99031.93
2018-04-11T21:19:37.384Z,99035.70
2018-04-11T21:22:04.926Z,99034.05
2018-04-11T21:24:33.001Z,99034.87
2018-04-11T21:27:00.984Z,99036.77
2018-04-11T21:29:29.261Z,99032.26
2018-04-11T21:31:57.428Z,99033.77
2018-04-11T21:34:25.121Z,99034.75
2018-04-11T21:36:53.167Z,99038.22
2018-04-11T21:39:20.714Z,99041.46
2018-04-11T21:41:48.579Z,99048.89
2018-04-11T21:44:16.620Z,99055.70
2018-04-11T21:46:44.841Z,99054.41
2018-04-11T21:49:12.394Z,99061.02
2018-04-11T21:51:39.978Z,99062.34
2018-04-11T21:54:08.133Z,99063.95
2018-04-11T21:56:36.073Z,99066.30
2018-04-11T21:59:04.340Z,99064.11
2018-04-11T22:01:31.898Z,99062.52
2018-04-11T22:03:59.805Z,99057.84
2018-04-11T22:06:27.636Z,99058.69
2018-04-11T22:08:55.181Z,99060.91
2018-04-11T22:11:22.800Z,99061.97
2018-04-11T22:13:50.555Z,99056.04
2018-04-11T22:16:18.118Z,99057.27
2018-04-11T22:18:45.726Z,99059.69
2018-04-11T22:21:13.287Z,99055.86
2018-04-11T22:23:40.853Z,99057.36
2018-04-11T22:26:08.446Z,99064.50
2018-04-11T22:28:36.042Z,99060.36
2018-04-11T22:31:03.588Z,99060.42
2018-04-11T22:33:31.510Z,99057.98
2018-04-11T22:35:59.109Z,99057.47
2018-04-11T22:38:27.092Z,99059.00
2018-04-11T22:40:54.639Z,99053.36
2018-04-11T22:43:22.242Z,99056.87
2018-04-11T22:45:50.064Z,99068.44
2018-04-11T22:48:17.651Z,99069.28
2018-04-11T22:50:45.484Z,99076.77
2018-04-11T22:53:13.025Z,99068.67
2018-04-11T22:55:41.029Z,99062.73
2018-04-11T22:58:08.968Z,99066.55
2018-04-11T23:00:36.510Z,99065.31
2018-04-11T23:03:04.109Z,99060.31
2018-04-11T23:05:31.659Z,99056.17
2018-04-11T23:07:59.286Z,99056.50
2018-04-11T23:10:27.073Z,99059.34
2018-04-11T23:12:54.637Z,99054.89
2018-04-11T23:15:22.259Z,99058.30
2018-04-11T23:17:49.886Z,99057.15
2018-04-11T23:20:17.454Z,99056.27
2018-04-11T23:22:45.250Z,99062.33
2018-04-11T23:25:13.806Z,99059.05
2018-04-11T23:27:41.353Z,99055.22
2018-04-11T23:30:08.938Z,99056.47
2018-04-11T23:32:36.490Z,99048.27
2018-04-11T23:35:04.108Z,99043.41
2018-04-11T23:37:32.087Z,99044.41
2018-04-11T23:40:00.061Z,99043.88
2018-04-11T23:42:28.027Z,99045.08
2018-04-11T23:44:55.576Z,99047.53
2018-04-11T23:47:23.165Z,99048.25
2018-04-11T23:49:50.750Z,99046.06
2018-04-11T23:52:18.289Z,99041.05
2018-04-11T23:54:45.878Z,99044.66
2018-04-11T23:57:13.481Z,99044.96
2018-04-11T23:59:41.661Z,99050.89
